Time;durP1;ratioP1;P1;durP2;ratioP2;P2;SDS_P1;SDS_P2;PMS_P1;PMS_P2;Temp;Humidity;BMP_temperature;BMP_pressure;BME280_temperature;BME280_humidity;BME280_pressure;Samples;Min_cycle;Max_cycle;Signal;HPM_P1;HPM_P2
2022/12/20 00:00:07;;;;;;;45.10;17.52;;;;;;;27.77;53.98;100832.06;5053509;28;70237;-39
2022/12/20 00:02:38;;;;;;;38.53;16.25;;;;;;;27.73;55.22;100829.97;5054487;28;66278;-35
2022/12/20 00:05:09;;;;;;;38.07;16.77;;;;;;;27.84;54.62;100838.34;5056006;28;69322;-37
2022/12/20 00:07:41;;;;;;;47.33;17.90;;;;;;;27.91;55.13;100843.75;5060177;28;65530;-37
2022/12/20 00:10:13;;;;;;;43.17;16.48;;;;;;;27.92;55.58;100850.84;5053174;28;71296;-36
2022/12/20 00:12:44;;;;;;;35.57;17.17;;;;;;;27.96;56.56;100845.84;5058113;28;66238;-36
2022/12/20 00:15:16;;;;;;;47.67;17.13;;;;;;;27.99;56.42;100848.97;5057588;28;70042;-39
2022/12/20 00:17:47;;;;;;;36.40;17.50;;;;;;;28.04;56.47;100857.28;5055695;28;65411;-37
2022/12/20 00:20:19;;;;;;;48.63;17.33;;;;;;;28.04;56.58;100854.59;5051845;28;70115;-38
2022/12/20 00:22:50;;;;;;;23.57;15.33;;;;;;;28.09;56.88;100861.28;5055547;28;66107;-36
2022/12/20 00:25:22;;;;;;;42.43;16.43;;;;;;;28.16;57.20;100867.50;5050290;28;70439;-36
2022/12/20 00:27:53;;;;;;;37.92;15.50;;;;;;;28.14;60.51;100872.25;5049713;28;66193;-36
2022/12/20 00:30:24;;;;;;;28.90;15.80;;;;;;;28.22;60.44;100875.63;5054812;28;68667;-35
2022/12/20 00:32:56;;;;;;;27.08;16.30;;;;;;;28.34;60.40;100881.25;5054391;28;64717;-35
2022/12/20 00:35:28;;;;;;;41.13;17.05;;;;;;;28.34;59.52;100875.88;5052438;28;69522;-35
2022/12/20 00:38:00;;;;;;;30.73;15.30;;;;;;;28.38;59.75;100887.06;5054514;28;66501;-35
2022/12/20 00:40:31;;;;;;;26.43;15.63;;;;;;;28.41;59.68;100898.28;5056236;28;70575;-35
2022/12/20 00:43:03;;;;;;;22.57;14.40;;;;;;;28.44;59.52;100897.91;5052759;28;66257;-37
2022/12/20 00:45:34;;;;;;;30.92;15.90;;;;;;;28.46;59.36;100903.94;5052344;28;70062;-35
2022/12/20 00:48:06;;;;;;;30.20;14.40;;;;;;;28.48;59.13;100909.97;5055379;28;66484;-34
2022/12/20 00:50:38;;;;;;;34.33;14.88;;;;;;;28.50;59.06;100907.91;5052902;28;70495;-36
2022/12/20 00:53:09;;;;;;;22.85;14.20;;;;;;;28.51;58.68;100903.34;5052895;28;66557;-36
2022/12/20 00:55:43;;;;;;;33.65;14.45;;;;;;;28.50;57.70;100907.91;5069524;27;71248;-36
2022/12/20 00:58:15;;;;;;;34.72;21.60;;;;;;;28.40;55.89;100912.00;5051922;28;66292;-36
2022/12/20 01:00:47;;;;;;;34.20;20.30;;;;;;;28.28;55.72;100909.88;5056521;28;70273;-37
2022/12/20 01:03:25;;;;;;;32.75;20.58;;;;;;;28.16;55.89;100899.88;5050152;28;65737;-37
2022/12/20 01:05:58;;;;;;;;;;;;;;;27.82;56.52;100912.34;5057114;28;69872;-35
2022/12/20 01:08:30;;;;;;;32.72;18.15;;;;;;;27.94;55.71;100901.84;5054795;28;67078;-37
2022/12/20 01:11:23;;;;;;;34.25;20.38;;;;;;;27.87;56.13;100920.69;5058954;28;70123;-37
2022/12/20 01:13:56;;;;;;;;;;;;;;;27.62;56.85;100926.50;5054558;28;65952;-36
2022/12/20 01:16:37;;;;;;;25.23;18.77;;;;;;;27.85;55.98;100928.13;5052592;28;70031;-35
2022/12/20 01:19:11;;;;;;;121.70;29.47;;;;;;;27.72;56.75;100898.38;5055218;28;66355;-36
2022/12/20 01:21:43;;;;;;;59.42;22.33;;;;;;;27.90;56.42;100927.53;5054098;28;69746;-39
2022/12/20 01:24:17;;;;;;;75.10;24.40;;;;;;;27.55;56.36;100887.06;5053128;28;66459;-37
2022/12/20 01:26:48;;;;;;;98.60;26.25;;;;;;;27.91;56.65;100934.59;5056164;28;70145;-37
2022/12/20 01:29:20;;;;;;;61.70;22.93;;;;;;;27.87;56.91;100939.56;5054853;28;66047;-36
2022/12/20 01:31:52;;;;;;;49.55;22.95;;;;;;;27.85;56.68;100934.34;5048694;28;69772;-37
2022/12/20 01:34:24;;;;;;;373.30;61.45;;;;;;;27.85;56.75;100941.63;5038145;28;65198;-37
2022/12/20 01:36:55;;;;;;;115.73;31.97;;;;;;;27.85;57.06;100953.22;5047745;28;69068;-36
2022/12/20 01:39:27;;;;;;;82.37;26.33;;;;;;;27.82;57.59;100948.22;5052667;28;66032;-37
2022/12/20 01:41:59;;;;;;;71.13;24.80;;;;;;;27.85;57.51;100941.63;5053996;28;69276;-37
2022/12/20 01:44:30;;;;;;;62.97;23.17;;;;;;;27.92;57.30;100952.44;5056842;28;66215;-37
2022/12/20 01:47:02;;;;;;;49.20;22.67;;;;;;;27.93;57.64;100960.31;5053709;28;70301;-36
2022/12/20 01:49:41;;;;;;;155.93;31.70;;;;;;;27.67;57.70;100908.94;5058159;28;65214;-37
2022/12/20 01:52:32;;;;;;;115.85;27.85;;;;;;;27.82;57.22;100926.66;5052855;28;70265;-38
2022/12/20 01:55:27;;;;;;;52.40;24.88;;;;;;;27.79;57.43;100910.03;5066483;28;66219;-36
2022/12/20 01:58:04;;;;;;;182.38;36.03;;;;;;;27.84;57.59;100918.41;5050712;28;70210;-37
2022/12/20 02:00:36;;;;;;;133.27;32.10;;;;;;;28.15;57.21;100963.75;5054623;28;65668;-38
2022/12/20 02:03:11;;;;;;;100.32;24.77;;;;;;;28.28;57.19;100981.91;5051654;28;70105;-38
2022/12/20 02:05:45;;;;;;;81.90;24.98;;;;;;;28.31;57.05;100968.00;5051787;28;66151;-37
2022/12/20 02:08:19;;;;;;;62.67;20.50;;;;;;;28.37;57.72;100967.19;5027779;28;69924;-37
2022/12/20 02:11:24;;;;;;;53.45;20.25;;;;;;;28.25;57.80;100968.78;5056348;28;64996;-38
2022/12/20 02:14:10;;;;;;;41.85;18.42;;;;;;;28.39;57.37;100970.53;5053114;28;70205;-38
2022/12/20 02:17:04;;;;;;;33.80;13.50;;;;;;;28.05;56.59;100926.41;5048218;28;65708;-36
2022/12/20 02:19:53;;;;;;;19.33;16.00;;;;;;;28.35;57.17;100969.25;5051387;28;70028;-37
2022/12/20 02:22:43;;;;;;;25.83;16.42;;;;;;;28.44;57.16;100962.66;5048006;28;66174;-37
2022/12/20 02:25:46;;;;;;;31.35;15.55;;;;;;;28.46;57.02;100960.59;5051609;28;69146;-35
2022/12/20 02:28:33;;;;;;;24.25;15.82;;;;;;;28.57;56.91;100964.59;5055795;28;65253;-40
2022/12/20 02:31:10;;;;;;;40.33;18.17;;;;;;;28.63;58.41;100968.34;5064715;27;70171;-36
2022/12/20 02:33:49;;;;;;;31.50;21.45;;;;;;;28.66;56.92;100959.84;5051167;28;66380;-37
2022/12/20 02:36:21;;;;;;;35.50;21.65;;;;;;;28.47;57.57;100919.13;5071420;27;70290;-40
2022/12/20 02:38:54;;;;;;;35.47;22.60;;;;;;;28.77;57.21;100951.16;5053315;28;66324;-39
2022/12/20 02:41:38;;;;;;;45.92;22.95;;;;;;;28.64;56.81;100926.81;5039705;28;70367;-37
2022/12/20 02:47:11;;;;;;;38.25;23.25;;;;;;;28.89;57.49;100938.72;5049342;28;69297;-37
2022/12/20 02:49:45;;;;;;;39.10;23.38;;;;;;;28.93;57.38;100933.72;5055489;28;65391;-36
2022/12/20 02:52:19;;;;;;;34.60;21.40;;;;;;;28.65;57.44;100878.03;5052644;28;69358;-38
2022/12/20 02:54:51;;;;;;;38.72;22.30;;;;;;;29.02;57.36;100937.06;5063612;27;66147;-38
2022/12/20 02:57:43;;;;;;;43.50;23.52;;;;;;;29.02;56.48;100926.25;5056211;28;70885;-40
2022/12/20 03:00:21;;;;;;;33.00;22.95;;;;;;;28.68;56.95;100866.00;5050326;28;66511;-38
2022/12/20 03:05:46;;;;;;;31.70;18.48;;;;;;;29.14;57.77;100920.09;5048700;28;66191;-38
2022/12/20 03:08:21;;;;;;;37.30;19.25;;;;;;;28.95;57.69;100874.97;5049079;28;70354;-38
2022/12/20 03:10:54;;;;;;;27.38;17.35;;;;;;;29.18;57.06;100910.50;5071209;27;66647;-37
2022/12/20 03:13:26;;;;;;;34.03;18.02;;;;;;;29.23;57.44;100909.91;5037897;28;71423;-39
2022/12/20 03:16:03;;;;;;;27.35;18.67;;;;;;;29.26;57.00;100906.78;5060756;28;66567;-37
2022/12/20 03:18:35;;;;;;;28.98;18.15;;;;;;;29.29;57.38;100900.94;5058295;28;69643;-40
2022/12/20 03:21:07;;;;;;;33.28;20.70;;;;;;;29.31;56.98;100892.63;5064246;28;65361;-40
2022/12/20 03:23:38;;;;;;;29.80;19.93;;;;;;;29.32;56.59;100895.13;5052970;28;69989;-38
2022/12/20 03:26:09;;;;;;;;;;;;;;;29.12;58.09;100899.72;5053765;28;65079;-38
2022/12/20 03:28:45;;;;;;;24.67;17.73;;;;;;;29.36;57.79;100896.38;5057227;28;70329;-38
2022/12/20 03:31:21;;;;;;;33.17;18.77;;;;;;;29.44;58.44;100889.06;5056280;28;65937;-40
2022/12/20 03:33:56;;;;;;;36.38;16.30;;;;;;;29.45;58.18;100879.91;5050329;28;69469;-38
2022/12/20 03:36:27;;;;;;;34.47;16.75;;;;;;;29.49;58.37;100881.16;5053553;28;66273;-37
2022/12/20 03:39:03;;;;;;;22.92;15.38;;;;;;;29.49;58.59;100873.06;5055338;28;69178;-36
2022/12/20 03:41:39;;;;;;;27.85;15.50;;;;;;;29.53;58.08;100875.16;5050155;28;66124;-37
2022/12/20 03:44:12;;;;;;;20.85;14.23;;;;;;;29.56;58.06;100869.31;5052474;28;69559;-37
2022/12/20 03:46:44;;;;;;;36.80;15.68;;;;;;;29.57;57.98;100859.31;5056066;28;66199;-37
2022/12/20 03:49:15;;;;;;;37.65;16.70;;;;;;;29.57;58.08;100843.94;5058275;28;69814;-35
2022/12/20 03:51:52;;;;;;;27.58;15.80;;;;;;;29.67;58.08;100848.94;5035972;28;65181;-38
2022/12/20 03:54:23;;;;;;;;;;;;;;;29.45;58.01;100847.50;5053056;28;69069;-36
2022/12/20 03:57:16;;;;;;;38.00;21.83;;;;;;;29.69;56.09;100830.63;5052961;28;67231;-36
2022/12/20 03:59:51;;;;;;;41.15;22.65;;;;;;;29.79;55.76;100833.72;5054163;28;69864;-41
2022/12/20 04:02:22;;;;;;;42.45;24.13;;;;;;;29.80;56.10;100832.66;5055830;28;65614;-37
2022/12/20 04:04:55;;;;;;;33.30;20.92;;;;;;;29.84;55.94;100827.66;5051614;28;70018;-35
2022/12/20 04:07:26;;;;;;;47.10;20.87;;;;;;;29.89;55.92;100833.22;5045613;28;65919;-36
2022/12/20 04:09:58;;;;;;;40.00;21.58;;;;;;;29.90;56.23;100821.38;5053954;28;70070;-36
2022/12/20 04:12:31;;;;;;;41.63;20.33;;;;;;;29.92;57.11;100822.00;5059492;28;65932;-38
2022/12/20 04:15:03;;;;;;;32.90;20.25;;;;;;;29.84;57.46;100812.25;5057600;28;70745;-37
2022/12/20 04:17:38;;;;;;;39.10;20.33;;;;;;;29.94;57.32;100811.78;5053574;28;65481;-39
2022/12/20 04:20:17;;;;;;;25.88;20.08;;;;;;;29.62;57.41;100754.09;5057227;28;69994;-37
2022/12/20 04:23:09;;;;;;;39.60;20.15;;;;;;;29.94;57.17;100800.97;5061441;28;65906;-35
2022/12/20 04:25:41;;;;;;;30.67;21.17;;;;;;;29.68;57.85;100763.25;5055696;28;69489;-37
2022/12/20 04:28:12;;;;;;;26.05;18.80;;;;;;;29.95;57.62;100799.09;5032669;28;66538;-39
2022/12/20 04:30:44;;;;;;;26.20;18.25;;;;;;;29.94;57.14;100782.03;5057013;28;70021;-37
2022/12/20 04:33:22;;;;;;;31.55;17.45;;;;;;;29.99;57.62;100787.63;5035351;28;65920;-38
2022/12/20 04:35:55;;;;;;;23.55;17.50;;;;;;;30.01;56.66;100779.31;5067904;27;70737;-38
2022/12/20 04:38:27;;;;;;;26.80;18.00;;;;;;;30.05;56.51;100780.53;5056249;28;66265;-39
2022/12/20 04:40:58;;;;;;;25.58;17.77;;;;;;;30.05;56.42;100765.13;5038655;28;68568;-38
2022/12/20 04:43:40;;;;;;;30.40;16.30;;;;;;;30.05;57.10;100758.88;5053801;28;65767;-37
2022/12/20 04:46:11;;;;;;;26.50;16.47;;;;;;;30.07;57.54;100745.97;5068639;27;69392;-37
2022/12/20 04:48:43;;;;;;;31.70;16.25;;;;;;;30.10;57.73;100739.31;5057564;28;66647;-37
2022/12/20 04:51:28;;;;;;;30.75;15.88;;;;;;;30.10;56.30;100740.13;5035160;28;70121;-38
2022/12/20 04:53:59;;;;;;;;;;;;;;;29.74;56.03;100724.53;5055445;28;66531;-39
2022/12/20 04:56:56;;;;;;;28.42;14.43;;;;;;;29.90;54.13;100717.81;5048474;28;68612;-38
2022/12/20 04:59:29;;;;;;;23.17;13.15;;;;;;;29.86;53.54;100716.56;5050286;28;66032;-38
2022/12/20 05:02:00;;;;;;;17.30;13.18;;;;;;;29.80;52.46;100708.28;5053269;28;69991;-39
2022/12/20 05:05:02;;;;;;;15.55;12.00;;;;;;;29.75;52.10;100699.16;5047526;28;66361;-38
2022/12/20 05:07:39;;;;;;;18.27;13.55;;;;;;;29.68;51.33;100682.97;5057543;28;70346;-38
2022/12/20 05:10:12;;;;;;;23.38;13.23;;;;;;;29.67;50.13;100689.44;5056283;28;66157;-40
2022/12/20 05:12:45;;;;;;;14.98;11.32;;;;;;;29.58;49.44;100683.41;5058553;28;68955;-40
2022/12/20 05:15:26;;;;;;;15.70;13.07;;;;;;;29.52;49.61;100661.84;5041361;28;66834;-39
2022/12/20 05:17:58;;;;;;;13.43;12.02;;;;;;;29.51;49.14;100665.59;5057415;28;70117;-40
2022/12/20 05:20:39;;;;;;;13.70;12.25;;;;;;;29.50;48.95;100666.63;5060524;28;66567;-38
2022/12/20 05:26:18;;;;;;;11.65;10.73;;;;;;;29.45;48.03;100658.31;5054654;28;66623;-40
2022/12/20 05:28:51;;;;;;;12.38;11.07;;;;;;;29.40;47.61;100654.41;5051870;28;70347;-41
2022/12/20 05:31:23;;;;;;;12.27;10.75;;;;;;;29.36;46.91;100647.78;5058117;28;65831;-39
2022/12/20 05:33:55;;;;;;;12.23;10.85;;;;;;;29.32;46.84;100641.16;5072483;27;69345;-38
2022/12/20 05:36:31;;;;;;;11.05;10.02;;;;;;;29.36;46.53;100634.28;5058203;28;66157;-39
2022/12/20 05:39:05;;;;;;;10.73;9.75;;;;;;;29.34;46.36;100639.06;5055034;28;70072;-39
2022/12/20 05:41:40;;;;;;;10.98;10.18;;;;;;;29.31;46.00;100634.09;5048616;28;65812;-39
2022/12/20 05:44:12;;;;;;;10.45;9.65;;;;;;;29.31;45.90;100634.09;5058182;28;70390;-37
2022/12/20 05:46:48;;;;;;;10.90;10.00;;;;;;;29.31;45.21;100622.44;5052222;28;66346;-39
2022/12/20 05:49:25;;;;;;;10.50;9.48;;;;;;;29.28;45.01;100612.06;5048732;28;70173;-40
2022/12/20 05:52:01;;;;;;;10.00;9.13;;;;;;;29.29;45.29;100609.16;5052250;28;67667;-39
2022/12/20 05:54:33;;;;;;;9.27;8.57;;;;;;;29.24;44.90;100605.44;5049540;28;69909;-40
2022/12/20 05:57:09;;;;;;;10.15;9.20;;;;;;;29.25;44.71;100607.09;5029688;28;65680;-43
2022/12/20 05:59:44;;;;;;;8.80;8.18;;;;;;;29.25;44.73;100602.53;5051793;28;70276;-38
2022/12/20 06:02:23;;;;;;;8.95;8.35;;;;;;;29.22;44.32;100597.56;5053068;28;65638;-39
2022/12/20 06:05:02;;;;;;;9.38;8.55;;;;;;;29.23;43.77;100596.53;5069907;27;70318;-38
2022/12/20 06:07:34;;;;;;;9.20;8.23;;;;;;;29.24;43.46;100594.66;5052042;28;66343;-38
2022/12/20 06:10:07;;;;;;;8.07;7.45;;;;;;;29.14;43.96;100573.50;5047405;28;69800;-39
2022/12/20 06:12:51;;;;;;;8.18;7.55;;;;;;;29.23;43.08;100574.91;5052768;28;66640;-37
2022/12/20 06:15:24;;;;;;;9.15;8.45;;;;;;;29.23;43.90;100574.09;5061860;27;70111;-38
2022/12/20 06:17:56;;;;;;;8.77;8.07;;;;;;;29.20;43.48;100563.69;5050741;28;65265;-39
2022/12/20 06:20:28;;;;;;;12.40;7.78;;;;;;;29.23;43.54;100564.09;5056707;28;70159;-37
2022/12/20 06:23:03;;;;;;;8.50;7.70;;;;;;;29.26;43.69;100550.16;5057166;28;66652;-36
2022/12/20 06:25:42;;;;;;;7.72;7.07;;;;;;;29.23;42.92;100556.00;5056954;28;69975;-37
2022/12/20 06:28:20;;;;;;;7.10;6.45;;;;;;;29.21;43.16;100536.47;5061439;28;65650;-43
2022/12/20 06:30:56;;;;;;;8.43;7.53;;;;;;;29.24;43.10;100533.34;5054795;28;70101;-38
2022/12/20 06:33:40;;;;;;;7.88;7.00;;;;;;;29.12;43.19;100500.78;5054038;28;66298;-38
2022/12/20 06:36:13;;;;;;;8.05;7.35;;;;;;;29.25;42.60;100521.47;5054096;28;69809;-38
2022/12/20 06:38:45;;;;;;;7.55;6.80;;;;;;;29.28;43.13;100515.66;5069855;27;65157;-38
2022/12/20 06:41:17;;;;;;;7.43;6.88;;;;;;;29.29;42.83;100517.31;5055541;28;70253;-38
2022/12/20 06:43:49;;;;;;;9.23;7.32;;;;;;;29.34;45.87;100509.38;5042879;28;66484;-36
2022/12/20 06:46:21;;;;;;;10.65;9.30;;;;;;;29.47;49.00;100510.31;5060627;28;70384;-39
2022/12/20 06:48:55;;;;;;;9.88;8.90;;;;;;;29.58;50.81;100504.19;5056236;28;65700;-41
2022/12/20 06:51:28;;;;;;;10.18;9.18;;;;;;;29.64;52.64;100492.53;5061568;28;70519;-41
2022/12/20 06:54:01;;;;;;;10.02;9.13;;;;;;;29.74;52.72;100498.28;5043719;28;63955;-38
2022/12/20 06:56:35;;;;;;;13.23;9.32;;;;;;;29.81;53.61;100496.34;5042707;28;69862;-42
2022/12/20 06:59:13;;;;;;;15.73;9.02;;;;;;;29.93;54.13;100499.13;5049644;28;66608;-38
2022/12/20 07:01:45;;;;;;;10.05;9.20;;;;;;;30.03;54.60;100504.03;5057631;28;69695;-38
2022/12/20 07:04:16;;;;;;;12.85;9.38;;;;;;;30.09;54.81;100489.63;5059978;28;65857;-38
2022/12/20 07:06:48;;;;;;;14.95;8.85;;;;;;;30.13;54.29;100480.00;5042901;28;70158;-38
2022/12/20 07:09:19;;;;;;;10.98;9.45;;;;;;;30.28;54.79;100488.63;5056036;28;66033;-42
2022/12/20 07:11:51;;;;;;;12.73;10.23;;;;;;;30.34;54.72;100476.06;5059496;28;68598;-38
2022/12/20 07:14:24;;;;;;;12.68;8.98;;;;;;;30.43;54.57;100480.09;5048454;28;66195;-37
2022/12/20 07:16:55;;;;;;;14.82;10.18;;;;;;;30.49;54.16;100478.38;5059949;28;70018;-38
2022/12/20 07:19:26;;;;;;;;;;;;;;;30.33;55.72;100478.97;5054838;28;66464;-36
2022/12/20 07:21:58;;;;;;;11.35;8.25;;;;;;;30.57;54.69;100469.94;5058993;28;70579;-38
2022/12/20 07:24:30;;;;;;;14.25;9.18;;;;;;;30.53;55.06;100452.47;5056706;28;65738;-38
2022/12/20 07:27:01;;;;;;;57.97;10.88;;;;;;;30.71;53.56;100465.19;5054316;28;70397;-37
2022/12/20 07:29:35;;;;;;;29.17;9.45;;;;;;;30.81;53.49;100464.63;5059017;28;66095;-37
2022/12/20 07:32:06;;;;;;;22.58;10.27;;;;;;;30.85;54.00;100461.25;5055119;28;70050;-38
2022/12/20 07:34:38;;;;;;;21.63;9.73;;;;;;;30.90;54.02;100457.88;5060959;28;65861;-37
2022/12/20 07:37:10;;;;;;;27.52;10.15;;;;;;;30.97;54.19;100464.00;5051992;28;69243;-37
2022/12/20 07:39:41;;;;;;;23.95;9.63;;;;;;;31.05;52.98;100460.13;5053954;28;66018;-38
2022/12/20 07:42:12;;;;;;;;;;;;;;;30.86;53.19;100456.66;5057704;28;69210;-37
2022/12/20 07:44:46;;;;;;;13.37;7.80;;;;;;;31.06;51.83;100451.75;5060056;28;66224;-38
2022/12/20 07:47:17;;;;;;;25.33;8.40;;;;;;;31.16;51.58;100453.91;5059859;28;69998;-37
2022/12/20 07:49:49;;;;;;;19.67;8.45;;;;;;;31.13;52.02;100441.66;5059004;28;66152;-39
2022/12/20 07:52:27;;;;;;;32.13;9.40;;;;;;;31.22;52.26;100444.03;5058629;28;70062;-39
2022/12/20 07:55:03;;;;;;;22.05;8.55;;;;;;;30.90;52.45;100390.16;5055601;28;65416;-38
2022/12/20 07:57:49;;;;;;;14.75;9.02;;;;;;;30.99;53.08;100391.47;5049495;28;70161;-39
2022/12/20 08:00:20;;;;;;;20.95;9.65;;;;;;;31.23;52.14;100434.84;5054340;28;65926;-38
2022/12/20 08:03:13;;;;;;;27.10;8.45;;;;;;;31.26;51.24;100428.94;5060853;28;69999;-40
2022/12/20 08:05:50;;;;;;;13.43;8.10;;;;;;;31.37;51.64;100429.00;5052083;28;66634;-38
2022/12/20 08:08:22;;;;;;;15.57;8.75;;;;;;;31.31;52.03;100420.94;5054465;28;69576;-39
2022/12/20 08:10:53;;;;;;;16.08;8.07;;;;;;;31.32;51.03;100436.97;5051619;28;66095;-38
2022/12/20 08:13:24;;;;;;;12.82;8.05;;;;;;;31.25;50.30;100433.53;5049065;28;69698;-37
2022/12/20 08:15:59;;;;;;;10.55;6.50;;;;;;;31.19;49.80;100439.09;5059929;28;66572;-38
2022/12/20 08:18:31;;;;;;;12.35;6.75;;;;;;;31.13;49.45;100438.94;5048875;28;69628;-37
2022/12/20 08:21:02;;;;;;;13.05;6.57;;;;;;;31.07;48.82;100447.19;5056156;28;66639;-38
2022/12/20 08:23:33;;;;;;;16.02;7.15;;;;;;;31.00;48.75;100433.72;5051945;28;69949;-38
2022/12/20 08:26:05;;;;;;;16.33;6.28;;;;;;;30.99;48.18;100445.63;5057576;28;66244;-37
2022/12/20 08:28:37;;;;;;;6.63;6.00;;;;;;;31.00;47.27;100446.47;5056250;28;70418;-37
2022/12/20 08:31:11;;;;;;;8.13;5.75;;;;;;;30.97;46.78;100452.34;5058405;28;65599;-37
2022/12/20 08:33:43;;;;;;;7.90;5.78;;;;;;;30.89;46.41;100445.34;5057648;28;69565;-38
2022/12/20 08:36:15;;;;;;;7.20;6.32;;;;;;;30.94;46.26;100448.22;5058698;28;65165;-38
2022/12/20 08:38:46;;;;;;;8.82;6.32;;;;;;;30.91;45.98;100454.09;4949367;28;2903621;-39
2022/12/20 08:41:17;;;;;;;6.18;4.72;;;;;;;30.90;45.33;100449.75;5052743;28;65387;-38
2022/12/20 08:43:49;;;;;;;7.93;5.85;;;;;;;30.92;45.19;100451.16;5056757;28;68671;-37
2022/12/20 08:46:20;;;;;;;7.20;5.45;;;;;;;30.65;44.80;100410.06;5059883;28;65390;-38
2022/12/20 08:48:52;;;;;;;5.05;4.65;;;;;;;30.92;44.57;100451.16;5053621;28;70556;-39
2022/12/20 08:51:23;;;;;;;5.65;5.15;;;;;;;30.91;44.31;100459.50;5058439;28;66241;-39
2022/12/20 08:53:55;;;;;;;8.00;4.95;;;;;;;30.86;43.92;100456.66;5063700;28;69908;-41
2022/12/20 08:56:26;;;;;;;8.48;4.72;;;;;;;30.90;43.57;100461.41;5053598;28;65989;-38
2022/12/20 08:58:58;;;;;;;5.88;5.35;;;;;;;30.87;43.79;100458.28;5055245;28;69211;-38
2022/12/20 09:01:32;;;;;;;9.48;5.15;;;;;;;30.86;43.60;100462.06;5049560;28;66243;-37
2022/12/20 09:04:04;;;;;;;6.07;5.63;;;;;;;30.83;43.53;100459.81;5053876;28;70424;-38
2022/12/20 09:06:35;;;;;;;4.97;4.57;;;;;;;30.82;42.95;100466.31;5047675;28;67822;-39
2022/12/20 09:09:07;;;;;;;5.13;4.72;;;;;;;30.81;43.11;100459.22;5054000;28;70090;-38
2022/12/20 09:11:40;;;;;;;7.97;4.57;;;;;;;30.76;42.99;100461.75;5053422;28;66637;-41
2022/12/20 09:14:12;;;;;;;6.25;4.85;;;;;;;30.80;42.55;100463.00;5058103;28;69770;-39
2022/12/20 09:16:44;;;;;;;5.43;5.00;;;;;;;30.77;42.50;100468.84;5056634;28;66512;-38
2022/12/20 09:19:16;;;;;;;13.07;5.00;;;;;;;30.76;42.78;100469.88;5056789;28;69167;-38
2022/12/20 09:21:47;;;;;;;5.45;4.32;;;;;;;30.77;43.50;100464.25;5054753;28;66286;-38
2022/12/20 09:24:18;;;;;;;7.47;4.38;;;;;;;30.79;43.79;100470.28;5053148;28;69475;-35
2022/12/20 09:26:49;;;;;;;11.88;5.55;;;;;;;30.82;44.71;100477.16;5073181;27;66675;-41
2022/12/20 09:29:21;;;;;;;28.10;6.93;;;;;;;30.88;45.03;100487.88;5052628;28;69416;-36
2022/12/20 09:31:58;;;;;;;23.73;6.78;;;;;;;30.89;45.46;100483.28;5045091;28;65219;-40
2022/12/20 09:34:29;;;;;;;15.63;7.73;;;;;;;30.94;48.17;100486.13;5055316;28;70086;-38
2022/12/20 09:37:01;;;;;;;;;;;;;;;30.83;50.46;100495.03;5059414;28;66610;-38
2022/12/20 09:39:32;;;;;;;15.32;8.13;;;;;;;31.08;51.10;100497.59;5054976;28;70828;-36
2022/12/20 09:42:08;;;;;;;16.70;7.03;;;;;;;31.11;52.59;100484.41;5056943;28;66539;-37
2022/12/20 09:44:42;;;;;;;14.43;7.50;;;;;;;30.96;53.02;100451.53;5058391;28;69349;-40
2022/12/20 09:47:22;;;;;;;19.80;7.60;;;;;;;31.06;53.54;100478.84;5053004;28;66232;-39
2022/12/20 09:49:56;;;;;;;20.50;8.13;;;;;;;31.04;54.11;100453.06;5055108;28;70737;-38
2022/12/20 09:52:37;;;;;;;8.63;7.38;;;;;;;31.37;54.53;100510.31;5047687;28;66455;-38
2022/12/20 09:55:15;;;;;;;12.73;7.63;;;;;;;31.41;54.85;100513.38;5055740;28;69528;-40
2022/12/20 09:58:14;;;;;;;13.35;8.40;;;;;;;31.36;56.39;100505.13;5053266;28;66345;-39
2022/12/20 10:00:48;;;;;;;12.15;7.82;;;;;;;31.14;56.11;100464.97;5072748;27;69859;-39
2022/12/20 10:03:28;;;;;;;11.23;7.35;;;;;;;31.50;56.53;100522.81;5054130;28;65470;-38
2022/12/20 10:06:11;;;;;;;9.68;7.38;;;;;;;31.54;57.03;100537.56;5050566;28;69944;-37
2022/12/20 10:09:29;;;;;;;12.35;7.55;;;;;;;31.45;58.34;100538.94;5054595;28;66026;-39
2022/12/20 10:12:34;;;;;;;18.23;7.75;;;;;;;31.35;57.48;100514.28;4976083;28;69243;-38
2022/12/20 10:15:22;;;;;;;17.20;7.57;;;;;;;31.57;58.24;100553.38;5055717;27;65610;-42
2022/12/20 10:18:31;;;;;;;15.38;9.82;;;;;;;31.53;58.70;100554.06;5050526;28;69710;-41
2022/12/20 10:21:14;;;;;;;30.20;13.30;;;;;;;31.63;59.01;100558.94;5054566;28;66300;-37
2022/12/20 10:23:53;;;;;;;28.48;16.40;;;;;;;31.65;57.86;100563.06;5051286;28;70026;-41
2022/12/20 10:26:24;;;;;;;34.35;16.25;;;;;;;31.65;58.83;100575.78;5050801;28;66370;-36
2022/12/20 10:28:56;;;;;;;40.17;19.20;;;;;;;31.66;58.38;100575.56;5051894;28;70413;-40
2022/12/20 10:31:27;;;;;;;;;;;;;;;31.45;59.60;100573.38;5050466;28;65840;-38
2022/12/20 10:33:59;;;;;;;27.73;17.13;;;;;;;31.66;58.40;100580.16;5050351;28;70277;-37
2022/12/20 10:36:35;;;;;;;45.75;17.27;;;;;;;31.64;58.69;100571.41;5055605;28;66126;-41
2022/12/20 10:39:09;;;;;;;43.38;18.48;;;;;;;31.72;58.69;100587.34;5051088;28;70367;-37
2022/12/20 10:41:43;;;;;;;34.67;16.67;;;;;;;31.72;58.17;100587.34;5054123;28;66310;-36
2022/12/20 10:44:27;;;;;;;35.33;16.10;;;;;;;31.61;57.29;100578.94;5052983;28;68987;-37
2022/12/20 10:47:00;;;;;;;27.90;15.00;;;;;;;31.39;56.98;100537.19;5051660;28;66024;-37
2022/12/20 10:49:39;;;;;;;28.40;15.13;;;;;;;31.71;57.25;100596.56;5054217;28;70275;-39
2022/12/20 10:52:16;;;;;;;22.00;14.95;;;;;;;31.69;57.10;100601.38;5049935;28;65340;-36
2022/12/20 10:54:47;;;;;;;25.58;15.73;;;;;;;31.60;57.76;100588.16;5051491;28;70221;-38
2022/12/20 10:57:21;;;;;;;29.73;14.20;;;;;;;31.58;57.47;100590.25;5050695;28;66117;-38
2022/12/20 10:59:59;;;;;;;25.45;13.75;;;;;;;31.69;57.60;100615.75;5051761;28;68023;-37
2022/12/20 11:02:35;;;;;;;20.00;13.70;;;;;;;31.59;57.98;100597.34;5051215;28;66275;-38
2022/12/20 11:05:10;;;;;;;24.42;13.77;;;;;;;31.67;58.03;100617.88;5050683;28;70535;-39
2022/12/20 11:07:53;;;;;;;;;;;;;;;31.44;58.20;100632.19;5053417;28;66109;-37
2022/12/20 11:10:45;;;;;;;18.13;12.27;;;;;;;31.64;57.99;100636.50;5053058;28;70368;-40
2022/12/20 11:13:24;;;;;;;17.67;12.10;;;;;;;31.65;57.96;100632.72;5051369;28;65205;-40
2022/12/20 11:16:00;;;;;;;17.90;12.57;;;;;;;31.66;58.01;100639.81;5048807;28;69207;-37
2022/12/20 11:18:54;;;;;;;24.73;13.27;;;;;;;31.20;57.66;100587.03;5048849;28;66430;-38
2022/12/20 11:21:44;;;;;;;17.60;12.07;;;;;;;31.20;57.89;100596.00;5045643;28;69165;-38
2022/12/20 11:24:55;;;;;;;15.50;12.23;;;;;;;31.52;57.82;100656.25;5052026;28;66772;-37
2022/12/20 11:27:39;;;;;;;19.42;12.63;;;;;;;31.21;57.71;100607.69;5021654;28;69666;-40
2022/12/20 11:30:50;;;;;;;16.88;13.30;;;;;;;31.46;57.54;100668.03;5050782;28;66363;-37
2022/12/20 11:33:25;;;;;;;13.45;12.07;;;;;;;31.53;57.56;100673.34;5035485;28;69827;-42
2022/12/20 11:36:22;;;;;;;18.45;12.25;;;;;;;31.42;57.98;100677.66;5059209;28;66681;-38
2022/12/20 11:39:08;;;;;;;14.50;12.13;;;;;;;31.15;57.97;100634.63;5052223;28;69409;-38
2022/12/20 11:41:55;;;;;;;19.33;13.35;;;;;;;31.17;58.09;100642.50;5054736;28;66748;-39
2022/12/20 11:44:52;;;;;;;17.52;13.35;;;;;;;31.35;58.31;100694.00;5056249;28;69476;-38
2022/12/20 11:47:50;;;;;;;15.10;13.48;;;;;;;31.34;58.59;100699.63;5033672;28;66019;-37
2022/12/20 11:50:40;;;;;;;19.38;13.05;;;;;;;31.32;58.62;100710.72;5052332;28;69482;-39
2022/12/20 11:53:53;;;;;;;23.40;13.60;;;;;;;31.28;58.57;100711.38;5037571;28;66736;-39
2022/12/20 11:56:34;;;;;;;22.93;14.77;;;;;;;31.35;58.58;100722.97;5041517;28;69454;-39
2022/12/20 11:59:44;;;;;;;15.13;12.55;;;;;;;31.23;59.25;100722.91;5056049;28;66429;-40
2022/12/20 12:02:21;;;;;;;17.85;14.73;;;;;;;31.31;59.25;100733.44;5056536;28;70193;-38
2022/12/20 12:05:00;;;;;;;20.45;14.50;;;;;;;31.31;59.07;100733.44;5057338;28;66255;-37
2022/12/20 12:07:35;;;;;;;19.92;14.98;;;;;;;30.73;58.84;100631.75;5054060;28;69386;-38